createdAt,value
2022-11-07T00:04:02.290Z,84.87
2022-11-07T00:14:04.869Z,85.80
2022-11-07T00:24:09.636Z,85.88
2022-11-07T00:34:12.577Z,86.03
2022-11-07T00:44:16.678Z,84.65
2022-11-07T00:54:19.283Z,85.50
2022-11-07T01:04:40.576Z,84.92
2022-11-07T01:14:43.224Z,84.74
2022-11-07T01:24:47.508Z,85.04
2022-11-07T01:34:50.133Z,84.79
2022-11-07T01:44:57.174Z,84.68
2022-11-07T01:55:05.537Z,84.45
2022-11-07T02:05:10.434Z,84.20
2022-11-07T02:15:13.332Z,84.78
2022-11-07T02:25:19.529Z,84.29
2022-11-07T02:35:37.869Z,84.62
2022-11-07T02:45:45.442Z,84.73
2022-11-07T02:55:48.136Z,85.11
2022-11-07T03:05:52.128Z,85.29
2022-11-07T03:15:55.972Z,84.63
2022-11-07T03:26:00.033Z,85.15
2022-11-07T03:36:02.787Z,85.43
2022-11-07T03:46:07.121Z,84.93
2022-11-07T03:56:11.669Z,84.90
2022-11-07T04:06:15.613Z,85.03
2022-11-07T04:16:37.449Z,85.44
2022-11-07T04:26:58.723Z,84.84
2022-11-07T04:37:01.324Z,85.13
2022-11-07T04:47:05.719Z,85.13
2022-11-07T04:57:08.345Z,85.55
2022-11-07T05:07:12.349Z,85.71
2022-11-07T05:17:16.250Z,85.35
2022-11-07T05:27:21.720Z,85.51
2022-11-07T05:37:24.384Z,84.81
2022-11-07T05:47:28.546Z,85.58
2022-11-07T05:57:31.455Z,84.75
2022-11-07T06:07:37.049Z,84.39
2022-11-07T06:17:40.328Z,84.97
2022-11-07T06:27:44.278Z,84.99
2022-11-07T06:37:46.940Z,84.15
2022-11-07T06:47:50.890Z,84.44
2022-11-07T06:57:53.554Z,84.27
2022-11-07T07:07:57.815Z,84.15
2022-11-07T07:18:01.319Z,83.77
2022-11-07T07:28:05.448Z,84.16
2022-11-07T07:38:08.133Z,84.41
2022-11-07T07:48:12.106Z,84.33
2022-11-07T07:58:15.116Z,86.09
2022-11-07T08:08:19.053Z,85.68
2022-11-07T08:18:22.743Z,84.43
2022-11-07T08:28:28.496Z,83.79
2022-11-07T08:38:32.522Z,83.44
2022-11-07T08:48:36.593Z,82.44
2022-11-07T08:58:39.243Z,81.70
2022-11-07T09:08:43.284Z,81.71
2022-11-07T09:18:46.454Z,80.05
2022-11-07T09:28:53.926Z,80.14
2022-11-07T09:38:59.162Z,80.60
2022-11-07T09:49:11.343Z,79.85
2022-11-07T09:59:20.477Z,80.48
2022-11-07T10:09:35.613Z,80.28
2022-11-07T10:19:50.373Z,81.81
2022-11-07T10:29:56.215Z,83.88
2022-11-07T10:39:59.115Z,86.51
2022-11-07T10:50:17.735Z,84.19
2022-11-07T11:00:26.700Z,82.29
2022-11-07T11:10:31.585Z,82.41
2022-11-07T11:20:38.203Z,82.26
2022-11-07T11:30:43.072Z,82.16
2022-11-07T11:40:51.153Z,81.85
2022-11-07T11:50:59.315Z,80.70
2022-11-07T12:01:08.321Z,79.81
2022-11-07T12:11:21.106Z,79.35
2022-11-07T12:21:33.075Z,77.25
2022-11-07T12:31:48.818Z,77.31
2022-11-07T12:41:58.714Z,76.36
2022-11-07T12:52:12.393Z,76.88
2022-11-07T13:02:26.041Z,75.50
2022-11-07T13:12:35.569Z,74.17
2022-11-07T13:22:40.159Z,76.93
2022-11-07T13:32:46.064Z,75.12
2022-11-07T13:42:55.452Z,76.26
2022-11-07T13:53:02.509Z,76.05
2022-11-07T14:03:05.600Z,75.97
2022-11-07T14:13:12.483Z,76.86
2022-11-07T14:23:15.288Z,77.76
2022-11-07T14:33:21.403Z,80.78
2022-11-07T14:43:26.070Z,83.05
2022-11-07T14:53:34.133Z,82.52
2022-11-07T15:03:50.577Z,82.36
2022-11-07T15:13:55.031Z,82.29
2022-11-07T15:23:58.337Z,81.85
2022-11-07T15:34:03.885Z,81.79
2022-11-07T15:44:06.538Z,81.76
2022-11-07T15:54:13.115Z,81.29
2022-11-07T16:04:16.200Z,82.02
2022-11-07T16:14:42.789Z,82.76
2022-11-07T16:24:44.549Z,83.00
2022-11-07T16:34:48.630Z,84.22
2022-11-07T16:44:51.336Z,86.00
2022-11-07T16:54:55.385Z,84.82
2022-11-07T17:04:57.989Z,84.40
2022-11-07T17:15:01.957Z,84.31
2022-11-07T17:25:05.081Z,84.69
2022-11-07T17:35:31.266Z,86.41
2022-11-07T17:45:33.642Z,87.84
2022-11-07T17:55:37.625Z,87.87
2022-11-07T18:05:40.247Z,88.86
2022-11-07T18:15:44.193Z,90.05
2022-11-07T18:25:46.770Z,90.76
2022-11-07T18:35:50.741Z,90.80
2022-11-07T18:45:54.083Z,90.81
2022-11-07T18:56:03.081Z,91.18
2022-11-07T19:06:06.671Z,91.39
2022-11-07T19:16:14.314Z,90.88
2022-11-07T19:26:18.900Z,90.75
2022-11-07T19:36:23.592Z,90.35
2022-11-07T19:46:26.230Z,89.85
2022-11-07T19:56:32.277Z,90.04
2022-11-07T20:06:36.653Z,89.92
2022-11-07T20:16:40.632Z,88.95
2022-11-07T20:26:45.675Z,87.96
2022-11-07T20:36:52.505Z,87.30
2022-11-07T20:46:56.481Z,86.37
2022-11-07T20:57:00.457Z,86.03
2022-11-07T21:07:03.053Z,85.03
2022-11-07T21:17:07.469Z,84.36
2022-11-07T21:27:10.119Z,84.12
2022-11-07T21:37:14.056Z,83.87
2022-11-07T21:47:16.694Z,83.42
2022-11-07T21:57:21.091Z,83.16
2022-11-07T22:07:23.698Z,83.39
2022-11-07T22:17:27.736Z,83.21
2022-11-07T22:27:30.302Z,83.65
2022-11-07T22:37:34.274Z,83.78
2022-11-07T22:47:36.926Z,83.94
2022-11-07T22:57:42.888Z,83.97
2022-11-07T23:07:45.550Z,84.14
2022-11-07T23:17:49.628Z,84.11
2022-11-07T23:27:52.255Z,84.01
2022-11-07T23:37:56.265Z,84.29
2022-11-07T23:48:18.508Z,84.22
2022-11-07T23:58:40.740Z,84.13
